sensor_id;sensor_type;location;lat;lon;timestamp;pressure;altitude;pressure_sealevel;temperature
15607;BMP180;7865;50.918;4.510;2023-04-30T00:03:22;101765.00;;;6.90
15607;BMP180;7865;50.918;4.510;2023-04-30T00:08:24;101770.00;;;6.90
15607;BMP180;7865;50.918;4.510;2023-04-30T00:13:27;101764.00;;;6.80
15607;BMP180;7865;50.918;4.510;2023-04-30T00:18:28;101755.00;;;6.80
15607;BMP180;7865;50.918;4.510;2023-04-30T00:23:29;101758.00;;;6.70
15607;BMP180;7865;50.918;4.510;2023-04-30T00:28:31;101750.00;;;6.60
15607;BMP180;7865;50.918;4.510;2023-04-30T00:33:32;101745.00;;;6.60
15607;BMP180;7865;50.918;4.510;2023-04-30T00:38:33;101743.00;;;6.60
15607;BMP180;7865;50.918;4.510;2023-04-30T00:43:34;101740.00;;;6.50
15607;BMP180;7865;50.918;4.510;2023-04-30T00:48:36;101737.00;;;6.50
15607;BMP180;7865;50.918;4.510;2023-04-30T00:53:39;101751.00;;;6.40
15607;BMP180;7865;50.918;4.510;2023-04-30T00:58:40;101738.00;;;6.30
15607;BMP180;7865;50.918;4.510;2023-04-30T01:03:42;101740.00;;;6.30
15607;BMP180;7865;50.918;4.510;2023-04-30T01:08:44;101742.00;;;6.20
15607;BMP180;7865;50.918;4.510;2023-04-30T01:14:09;101737.00;;;6.10
15607;BMP180;7865;50.918;4.510;2023-04-30T01:24:57;101739.00;;;6.00
15607;BMP180;7865;50.918;4.510;2023-04-30T01:30:02;101731.00;;;5.80
15607;BMP180;7865;50.918;4.510;2023-04-30T01:35:05;101737.00;;;5.80
15607;BMP180;7865;50.918;4.510;2023-04-30T01:40:22;101738.00;;;5.70
15607;BMP180;7865;50.918;4.510;2023-04-30T01:45:32;101754.00;;;5.60
15607;BMP180;7865;50.918;4.510;2023-04-30T01:50:46;101740.00;;;5.50
15607;BMP180;7865;50.918;4.510;2023-04-30T01:55:54;101742.00;;;5.40
15607;BMP180;7865;50.918;4.510;2023-04-30T02:00:58;101749.00;;;5.30
15607;BMP180;7865;50.918;4.510;2023-04-30T02:05:59;101750.00;;;5.30
15607;BMP180;7865;50.918;4.510;2023-04-30T02:11:00;101751.00;;;5.20
15607;BMP180;7865;50.918;4.510;2023-04-30T02:16:02;101747.00;;;5.20
15607;BMP180;7865;50.918;4.510;2023-04-30T02:21:04;101736.00;;;5.10
15607;BMP180;7865;50.918;4.510;2023-04-30T02:26:06;101731.00;;;5.10
15607;BMP180;7865;50.918;4.510;2023-04-30T02:31:07;101739.00;;;5.00
15607;BMP180;7865;50.918;4.510;2023-04-30T02:36:08;101739.00;;;4.90
15607;BMP180;7865;50.918;4.510;2023-04-30T02:41:10;101730.00;;;4.90
15607;BMP180;7865;50.918;4.510;2023-04-30T02:46:11;101720.00;;;4.90
15607;BMP180;7865;50.918;4.510;2023-04-30T02:51:12;101727.00;;;4.80
15607;BMP180;7865;50.918;4.510;2023-04-30T02:56:14;101729.00;;;4.80
15607;BMP180;7865;50.918;4.510;2023-04-30T03:01:15;101733.00;;;4.70
15607;BMP180;7865;50.918;4.510;2023-04-30T03:06:17;101734.00;;;4.70
15607;BMP180;7865;50.918;4.510;2023-04-30T03:11:19;101735.00;;;4.60
15607;BMP180;7865;50.918;4.510;2023-04-30T03:16:21;101729.00;;;4.50
15607;BMP180;7865;50.918;4.510;2023-04-30T03:21:23;101738.00;;;4.50
15607;BMP180;7865;50.918;4.510;2023-04-30T03:26:24;101730.00;;;4.50
15607;BMP180;7865;50.918;4.510;2023-04-30T03:31:25;101727.00;;;4.50
15607;BMP180;7865;50.918;4.510;2023-04-30T03:36:27;101724.00;;;4.40
15607;BMP180;7865;50.918;4.510;2023-04-30T03:41:28;101719.00;;;4.40
15607;BMP180;7865;50.918;4.510;2023-04-30T03:46:30;101729.00;;;4.30
15607;BMP180;7865;50.918;4.510;2023-04-30T03:51:31;101731.00;;;4.30
15607;BMP180;7865;50.918;4.510;2023-04-30T03:56:33;101723.00;;;4.20
15607;BMP180;7865;50.918;4.510;2023-04-30T04:01:35;101724.00;;;4.10
15607;BMP180;7865;50.918;4.510;2023-04-30T04:06:36;101719.00;;;4.10
15607;BMP180;7865;50.918;4.510;2023-04-30T04:11:38;101728.00;;;4.10
15607;BMP180;7865;50.918;4.510;2023-04-30T04:16:40;101720.00;;;4.10
15607;BMP180;7865;50.918;4.510;2023-04-30T04:21:41;101720.00;;;4.10
15607;BMP180;7865;50.918;4.510;2023-04-30T04:26:48;101725.00;;;4.10
15607;BMP180;7865;50.918;4.510;2023-04-30T04:31:49;101734.00;;;4.20
15607;BMP180;7865;50.918;4.510;2023-04-30T04:36:51;101746.00;;;4.20
15607;BMP180;7865;50.918;4.510;2023-04-30T04:41:53;101740.00;;;4.20
15607;BMP180;7865;50.918;4.510;2023-04-30T04:46:55;101753.00;;;4.30
15607;BMP180;7865;50.918;4.510;2023-04-30T04:51:56;101749.00;;;4.30
15607;BMP180;7865;50.918;4.510;2023-04-30T04:56:58;101746.00;;;4.50
15607;BMP180;7865;50.918;4.510;2023-04-30T05:01:59;101755.00;;;4.70
15607;BMP180;7865;50.918;4.510;2023-04-30T05:07:01;101758.00;;;4.90
15607;BMP180;7865;50.918;4.510;2023-04-30T05:12:03;101754.00;;;5.30
15607;BMP180;7865;50.918;4.510;2023-04-30T05:17:05;101749.00;;;5.70
15607;BMP180;7865;50.918;4.510;2023-04-30T05:22:07;101753.00;;;6.10
15607;BMP180;7865;50.918;4.510;2023-04-30T05:27:08;101747.00;;;6.40
15607;BMP180;7865;50.918;4.510;2023-04-30T05:32:10;101749.00;;;6.70
15607;BMP180;7865;50.918;4.510;2023-04-30T05:37:11;101747.00;;;7.00
15607;BMP180;7865;50.918;4.510;2023-04-30T05:42:14;101749.00;;;7.30
15607;BMP180;7865;50.918;4.510;2023-04-30T05:47:15;101735.00;;;7.70
15607;BMP180;7865;50.918;4.510;2023-04-30T05:52:17;101737.00;;;8.10
15607;BMP180;7865;50.918;4.510;2023-04-30T05:57:18;101735.00;;;8.50
15607;BMP180;7865;50.918;4.510;2023-04-30T06:02:20;101729.00;;;9.00
15607;BMP180;7865;50.918;4.510;2023-04-30T06:07:21;101726.00;;;9.50
15607;BMP180;7865;50.918;4.510;2023-04-30T06:12:23;101723.00;;;9.90
15607;BMP180;7865;50.918;4.510;2023-04-30T06:17:24;101722.00;;;10.30
15607;BMP180;7865;50.918;4.510;2023-04-30T06:22:26;101720.00;;;10.60
15607;BMP180;7865;50.918;4.510;2023-04-30T06:27:27;101731.00;;;10.90
15607;BMP180;7865;50.918;4.510;2023-04-30T06:32:28;101739.00;;;11.40
15607;BMP180;7865;50.918;4.510;2023-04-30T06:37:30;101725.00;;;11.80
15607;BMP180;7865;50.918;4.510;2023-04-30T06:42:35;101735.00;;;12.10
15607;BMP180;7865;50.918;4.510;2023-04-30T06:47:37;101731.00;;;12.60
15607;BMP180;7865;50.918;4.510;2023-04-30T06:52:38;101738.00;;;13.00
15607;BMP180;7865;50.918;4.510;2023-04-30T06:57:40;101734.00;;;13.30
15607;BMP180;7865;50.918;4.510;2023-04-30T07:02:41;101730.00;;;13.50
15607;BMP180;7865;50.918;4.510;2023-04-30T07:07:43;101724.00;;;13.80
15607;BMP180;7865;50.918;4.510;2023-04-30T07:12:44;101721.00;;;14.00
15607;BMP180;7865;50.918;4.510;2023-04-30T07:17:46;101716.00;;;13.90
15607;BMP180;7865;50.918;4.510;2023-04-30T07:22:47;101720.00;;;14.10
15607;BMP180;7865;50.918;4.510;2023-04-30T07:27:50;101719.00;;;14.70
15607;BMP180;7865;50.918;4.510;2023-04-30T07:32:52;101708.00;;;15.20
15607;BMP180;7865;50.918;4.510;2023-04-30T07:37:55;101705.00;;;15.40
15607;BMP180;7865;50.918;4.510;2023-04-30T07:42:56;101697.00;;;15.50
15607;BMP180;7865;50.918;4.510;2023-04-30T07:47:58;101699.00;;;15.80
15607;BMP180;7865;50.918;4.510;2023-04-30T07:53:00;101704.00;;;16.50
15607;BMP180;7865;50.918;4.510;2023-04-30T07:58:02;101703.00;;;17.30
15607;BMP180;7865;50.918;4.510;2023-04-30T08:03:03;101703.00;;;17.60
15607;BMP180;7865;50.918;4.510;2023-04-30T08:08:05;101689.00;;;17.80
15607;BMP180;7865;50.918;4.510;2023-04-30T08:13:06;101695.00;;;18.20
15607;BMP180;7865;50.918;4.510;2023-04-30T08:18:08;101684.00;;;18.70
15607;BMP180;7865;50.918;4.510;2023-04-30T08:23:09;101694.00;;;19.40
15607;BMP180;7865;50.918;4.510;2023-04-30T08:28:11;101695.00;;;19.70
15607;BMP180;7865;50.918;4.510;2023-04-30T08:33:13;101685.00;;;19.50
15607;BMP180;7865;50.918;4.510;2023-04-30T08:38:14;101687.00;;;19.90
15607;BMP180;7865;50.918;4.510;2023-04-30T08:43:17;101682.00;;;20.40
15607;BMP180;7865;50.918;4.510;2023-04-30T08:48:20;101682.00;;;20.70
15607;BMP180;7865;50.918;4.510;2023-04-30T08:53:23;101679.00;;;20.90
15607;BMP180;7865;50.918;4.510;2023-04-30T08:58:24;101682.00;;;21.00
15607;BMP180;7865;50.918;4.510;2023-04-30T09:03:26;101670.00;;;21.30
15607;BMP180;7865;50.918;4.510;2023-04-30T09:13:43;101668.00;;;21.90
15607;BMP180;7865;50.918;4.510;2023-04-30T09:18:44;101668.00;;;21.90
15607;BMP180;7865;50.918;4.510;2023-04-30T09:23:55;101658.00;;;22.30
15607;BMP180;7865;50.918;4.510;2023-04-30T09:28:57;101654.00;;;22.70
15607;BMP180;7865;50.918;4.510;2023-04-30T09:33:59;101659.00;;;22.80
15607;BMP180;7865;50.918;4.510;2023-04-30T09:39:11;101656.00;;;22.80
15607;BMP180;7865;50.918;4.510;2023-04-30T09:44:31;101649.00;;;23.30
15607;BMP180;7865;50.918;4.510;2023-04-30T09:49:36;101648.00;;;23.50
15607;BMP180;7865;50.918;4.510;2023-04-30T09:54:39;101637.00;;;23.20
15607;BMP180;7865;50.918;4.510;2023-04-30T09:59:45;101636.00;;;23.80
15607;BMP180;7865;50.918;4.510;2023-04-30T10:04:51;101634.00;;;23.80
15607;BMP180;7865;50.918;4.510;2023-04-30T10:09:57;101630.00;;;24.00
15607;BMP180;7865;50.918;4.510;2023-04-30T10:15:08;101628.00;;;24.00
15607;BMP180;7865;50.918;4.510;2023-04-30T10:20:11;101625.00;;;24.00
15607;BMP180;7865;50.918;4.510;2023-04-30T10:25:13;101623.00;;;24.50
15607;BMP180;7865;50.918;4.510;2023-04-30T10:30:15;101618.00;;;24.90
15607;BMP180;7865;50.918;4.510;2023-04-30T10:35:21;101625.00;;;25.40
15607;BMP180;7865;50.918;4.510;2023-04-30T10:40:27;101607.00;;;25.20
15607;BMP180;7865;50.918;4.510;2023-04-30T10:45:36;101605.00;;;25.50
15607;BMP180;7865;50.918;4.510;2023-04-30T10:50:47;101595.00;;;25.80
15607;BMP180;7865;50.918;4.510;2023-04-30T11:01:24;101570.00;;;25.00
15607;BMP180;7865;50.918;4.510;2023-04-30T11:28:50;101543.00;;;26.20
15607;BMP180;7865;50.918;4.510;2023-04-30T11:33:54;101530.00;;;26.30
15607;BMP180;7865;50.918;4.510;2023-04-30T11:38:56;101517.00;;;26.90
15607;BMP180;7865;50.918;4.510;2023-04-30T11:43:57;101518.00;;;27.10
15607;BMP180;7865;50.918;4.510;2023-04-30T11:48:58;101519.00;;;26.40
15607;BMP180;7865;50.918;4.510;2023-04-30T11:54:00;101507.00;;;26.50
15607;BMP180;7865;50.918;4.510;2023-04-30T11:59:09;101502.00;;;25.70
15607;BMP180;7865;50.918;4.510;2023-04-30T12:04:10;101496.00;;;25.50
15607;BMP180;7865;50.918;4.510;2023-04-30T12:09:12;101485.00;;;25.40
15607;BMP180;7865;50.918;4.510;2023-04-30T12:14:13;101478.00;;;26.00
15607;BMP180;7865;50.918;4.510;2023-04-30T12:19:17;101463.00;;;26.20
15607;BMP180;7865;50.918;4.510;2023-04-30T12:24:18;101469.00;;;26.30
15607;BMP180;7865;50.918;4.510;2023-04-30T12:29:21;101467.00;;;26.00
15607;BMP180;7865;50.918;4.510;2023-04-30T12:34:25;101449.00;;;25.90
15607;BMP180;7865;50.918;4.510;2023-04-30T12:39:32;101456.00;;;26.30
15607;BMP180;7865;50.918;4.510;2023-04-30T12:50:08;101440.00;;;26.60
15607;BMP180;7865;50.918;4.510;2023-04-30T12:55:17;101445.00;;;26.80
15607;BMP180;7865;50.918;4.510;2023-04-30T13:00:19;101439.00;;;27.00
15607;BMP180;7865;50.918;4.510;2023-04-30T13:05:21;101426.00;;;26.70
15607;BMP180;7865;50.918;4.510;2023-04-30T13:10:22;101433.00;;;26.20
15607;BMP180;7865;50.918;4.510;2023-04-30T13:15:25;101422.00;;;25.80
15607;BMP180;7865;50.918;4.510;2023-04-30T13:20:27;101421.00;;;25.70
15607;BMP180;7865;50.918;4.510;2023-04-30T13:25:28;101416.00;;;25.60
15607;BMP180;7865;50.918;4.510;2023-04-30T13:30:30;101405.00;;;25.60
15607;BMP180;7865;50.918;4.510;2023-04-30T13:35:31;101396.00;;;26.10
15607;BMP180;7865;50.918;4.510;2023-04-30T13:40:33;101396.00;;;26.70
15607;BMP180;7865;50.918;4.510;2023-04-30T13:45:34;101386.00;;;27.10
15607;BMP180;7865;50.918;4.510;2023-04-30T13:51:00;101381.00;;;28.50
15607;BMP180;7865;50.918;4.510;2023-04-30T13:56:02;101377.00;;;28.80
15607;BMP180;7865;50.918;4.510;2023-04-30T14:01:03;101377.00;;;28.80
15607;BMP180;7865;50.918;4.510;2023-04-30T14:06:05;101372.00;;;28.90
15607;BMP180;7865;50.918;4.510;2023-04-30T14:11:06;101382.00;;;27.80
15607;BMP180;7865;50.918;4.510;2023-04-30T14:16:07;101372.00;;;28.90
15607;BMP180;7865;50.918;4.510;2023-04-30T14:21:17;101369.00;;;28.50
15607;BMP180;7865;50.918;4.510;2023-04-30T14:26:18;101360.00;;;29.60
15607;BMP180;7865;50.918;4.510;2023-04-30T14:31:19;101349.00;;;31.70
15607;BMP180;7865;50.918;4.510;2023-04-30T14:36:21;101334.00;;;32.70
15607;BMP180;7865;50.918;4.510;2023-04-30T14:41:22;101346.00;;;33.20
15607;BMP180;7865;50.918;4.510;2023-04-30T14:46:23;101346.00;;;33.40
15607;BMP180;7865;50.918;4.510;2023-04-30T14:51:25;101367.00;;;28.10
15607;BMP180;7865;50.918;4.510;2023-04-30T14:56:26;101366.00;;;24.10
15607;BMP180;7865;50.918;4.510;2023-04-30T15:01:27;101351.00;;;24.40
15607;BMP180;7865;50.918;4.510;2023-04-30T15:06:30;101333.00;;;24.60
15607;BMP180;7865;50.918;4.510;2023-04-30T15:11:32;101343.00;;;25.30
15607;BMP180;7865;50.918;4.510;2023-04-30T15:16:33;101325.00;;;24.00
15607;BMP180;7865;50.918;4.510;2023-04-30T15:21:35;101315.00;;;23.60
15607;BMP180;7865;50.918;4.510;2023-04-30T15:26:36;101303.00;;;24.00
15607;BMP180;7865;50.918;4.510;2023-04-30T15:31:38;101299.00;;;24.10
15607;BMP180;7865;50.918;4.510;2023-04-30T15:36:39;101291.00;;;23.70
15607;BMP180;7865;50.918;4.510;2023-04-30T15:41:40;101297.00;;;24.20
15607;BMP180;7865;50.918;4.510;2023-04-30T15:46:42;101294.00;;;24.90
15607;BMP180;7865;50.918;4.510;2023-04-30T15:51:43;101306.00;;;23.00
15607;BMP180;7865;50.918;4.510;2023-04-30T15:56:46;101290.00;;;22.30
15607;BMP180;7865;50.918;4.510;2023-04-30T16:01:47;101288.00;;;22.20
15607;BMP180;7865;50.918;4.510;2023-04-30T16:06:49;101278.00;;;22.20
15607;BMP180;7865;50.918;4.510;2023-04-30T16:11:50;101278.00;;;22.20
15607;BMP180;7865;50.918;4.510;2023-04-30T16:16:52;101264.00;;;22.20
15607;BMP180;7865;50.918;4.510;2023-04-30T16:21:54;101266.00;;;22.10
15607;BMP180;7865;50.918;4.510;2023-04-30T16:26:55;101255.00;;;21.70
15607;BMP180;7865;50.918;4.510;2023-04-30T16:31:57;101249.00;;;21.40
15607;BMP180;7865;50.918;4.510;2023-04-30T16:36:59;101244.00;;;21.20
15607;BMP180;7865;50.918;4.510;2023-04-30T16:42:00;101246.00;;;20.80
15607;BMP180;7865;50.918;4.510;2023-04-30T16:47:02;101242.00;;;20.40
15607;BMP180;7865;50.918;4.510;2023-04-30T16:52:04;101240.00;;;20.20
15607;BMP180;7865;50.918;4.510;2023-04-30T16:57:06;101244.00;;;20.20
15607;BMP180;7865;50.918;4.510;2023-04-30T17:02:08;101240.00;;;20.20
15607;BMP180;7865;50.918;4.510;2023-04-30T17:07:13;101232.00;;;20.20
15607;BMP180;7865;50.918;4.510;2023-04-30T17:12:18;101227.00;;;20.30
15607;BMP180;7865;50.918;4.510;2023-04-30T17:17:20;101222.00;;;20.40
15607;BMP180;7865;50.918;4.510;2023-04-30T17:22:22;101222.00;;;20.30
15607;BMP180;7865;50.918;4.510;2023-04-30T17:27:25;101218.00;;;20.10
15607;BMP180;7865;50.918;4.510;2023-04-30T17:32:27;101212.00;;;19.90
15607;BMP180;7865;50.918;4.510;2023-04-30T17:37:29;101207.00;;;19.70
15607;BMP180;7865;50.918;4.510;2023-04-30T17:42:30;101214.00;;;19.20
15607;BMP180;7865;50.918;4.510;2023-04-30T17:47:33;101210.00;;;18.80
15607;BMP180;7865;50.918;4.510;2023-04-30T17:52:35;101206.00;;;18.50
15607;BMP180;7865;50.918;4.510;2023-04-30T17:57:38;101213.00;;;18.20
15607;BMP180;7865;50.918;4.510;2023-04-30T18:02:40;101212.00;;;18.10
15607;BMP180;7865;50.918;4.510;2023-04-30T18:07:42;101211.00;;;17.90
15607;BMP180;7865;50.918;4.510;2023-04-30T18:12:43;101211.00;;;17.80
15607;BMP180;7865;50.918;4.510;2023-04-30T18:17:44;101202.00;;;17.60
15607;BMP180;7865;50.918;4.510;2023-04-30T18:22:46;101204.00;;;17.40
15607;BMP180;7865;50.918;4.510;2023-04-30T18:27:47;101204.00;;;17.20
15607;BMP180;7865;50.918;4.510;2023-04-30T18:32:49;101208.00;;;17.00
15607;BMP180;7865;50.918;4.510;2023-04-30T18:37:51;101202.00;;;16.80
15607;BMP180;7865;50.918;4.510;2023-04-30T18:42:53;101193.00;;;16.60
15607;BMP180;7865;50.918;4.510;2023-04-30T18:47:56;101196.00;;;16.50
15607;BMP180;7865;50.918;4.510;2023-04-30T18:52:58;101192.00;;;16.30
15607;BMP180;7865;50.918;4.510;2023-04-30T18:57:59;101194.00;;;16.10
15607;BMP180;7865;50.918;4.510;2023-04-30T19:03:00;101194.00;;;15.90
15607;BMP180;7865;50.918;4.510;2023-04-30T19:08:02;101200.00;;;15.70
15607;BMP180;7865;50.918;4.510;2023-04-30T19:13:05;101193.00;;;15.60
15607;BMP180;7865;50.918;4.510;2023-04-30T19:18:07;101189.00;;;15.50
15607;BMP180;7865;50.918;4.510;2023-04-30T19:23:11;101195.00;;;15.40
15607;BMP180;7865;50.918;4.510;2023-04-30T19:28:12;101200.00;;;15.30
15607;BMP180;7865;50.918;4.510;2023-04-30T19:33:15;101203.00;;;15.20
15607;BMP180;7865;50.918;4.510;2023-04-30T19:38:17;101194.00;;;15.20
15607;BMP180;7865;50.918;4.510;2023-04-30T19:43:22;101209.00;;;15.10
15607;BMP180;7865;50.918;4.510;2023-04-30T19:48:24;101207.00;;;15.10
15607;BMP180;7865;50.918;4.510;2023-04-30T19:53:26;101210.00;;;15.10
15607;BMP180;7865;50.918;4.510;2023-04-30T19:58:29;101210.00;;;15.10
15607;BMP180;7865;50.918;4.510;2023-04-30T20:03:30;101210.00;;;15.10
15607;BMP180;7865;50.918;4.510;2023-04-30T20:08:32;101205.00;;;15.00
15607;BMP180;7865;50.918;4.510;2023-04-30T20:13:33;101202.00;;;15.00
15607;BMP180;7865;50.918;4.510;2023-04-30T20:18:34;101210.00;;;14.90
15607;BMP180;7865;50.918;4.510;2023-04-30T20:23:36;101205.00;;;14.90
15607;BMP180;7865;50.918;4.510;2023-04-30T20:28:40;101207.00;;;14.90
15607;BMP180;7865;50.918;4.510;2023-04-30T20:33:42;101209.00;;;14.90
15607;BMP180;7865;50.918;4.510;2023-04-30T20:38:43;101205.00;;;14.80
15607;BMP180;7865;50.918;4.510;2023-04-30T20:43:45;101201.00;;;14.80
15607;BMP180;7865;50.918;4.510;2023-04-30T20:48:47;101196.00;;;14.70
15607;BMP180;7865;50.918;4.510;2023-04-30T20:53:48;101197.00;;;14.60
15607;BMP180;7865;50.918;4.510;2023-04-30T20:58:49;101198.00;;;14.60
15607;BMP180;7865;50.918;4.510;2023-04-30T21:03:51;101198.00;;;14.50
15607;BMP180;7865;50.918;4.510;2023-04-30T21:08:52;101192.00;;;14.40
15607;BMP180;7865;50.918;4.510;2023-04-30T21:13:54;101191.00;;;14.30
15607;BMP180;7865;50.918;4.510;2023-04-30T21:18:55;101187.00;;;14.20
15607;BMP180;7865;50.918;4.510;2023-04-30T21:23:57;101185.00;;;14.10
15607;BMP180;7865;50.918;4.510;2023-04-30T21:29:01;101188.00;;;14.00
15607;BMP180;7865;50.918;4.510;2023-04-30T21:34:03;101195.00;;;14.00
15607;BMP180;7865;50.918;4.510;2023-04-30T21:39:04;101187.00;;;13.90
15607;BMP180;7865;50.918;4.510;2023-04-30T21:44:05;101184.00;;;13.80
15607;BMP180;7865;50.918;4.510;2023-04-30T21:49:07;101186.00;;;13.80
15607;BMP180;7865;50.918;4.510;2023-04-30T21:54:08;101177.00;;;13.70
15607;BMP180;7865;50.918;4.510;2023-04-30T21:59:10;101174.00;;;13.60
15607;BMP180;7865;50.918;4.510;2023-04-30T22:04:11;101179.00;;;13.60
15607;BMP180;7865;50.918;4.510;2023-04-30T22:09:13;101175.00;;;13.50
15607;BMP180;7865;50.918;4.510;2023-04-30T22:14:15;101167.00;;;13.50
15607;BMP180;7865;50.918;4.510;2023-04-30T22:19:16;101169.00;;;13.50
15607;BMP180;7865;50.918;4.510;2023-04-30T22:24:18;101162.00;;;13.50
15607;BMP180;7865;50.918;4.510;2023-04-30T22:29:20;101164.00;;;13.40
15607;BMP180;7865;50.918;4.510;2023-04-30T22:34:22;101159.00;;;13.40
15607;BMP180;7865;50.918;4.510;2023-04-30T22:39:23;101156.00;;;13.40
15607;BMP180;7865;50.918;4.510;2023-04-30T22:44:25;101154.00;;;13.30
15607;BMP180;7865;50.918;4.510;2023-04-30T22:49:28;101160.00;;;13.30
15607;BMP180;7865;50.918;4.510;2023-04-30T22:54:33;101148.00;;;13.20
15607;BMP180;7865;50.918;4.510;2023-04-30T22:59:35;101150.00;;;13.20
15607;BMP180;7865;50.918;4.510;2023-04-30T23:04:36;101138.00;;;13.10
15607;BMP180;7865;50.918;4.510;2023-04-30T23:09:38;101143.00;;;13.10
15607;BMP180;7865;50.918;4.510;2023-04-30T23:14:39;101136.00;;;13.00
15607;BMP180;7865;50.918;4.510;2023-04-30T23:19:41;101135.00;;;13.00
15607;BMP180;7865;50.918;4.510;2023-04-30T23:24:42;101139.00;;;12.90
15607;BMP180;7865;50.918;4.510;2023-04-30T23:29:44;101130.00;;;12.90
15607;BMP180;7865;50.918;4.510;2023-04-30T23:34:45;101125.00;;;12.70
15607;BMP180;7865;50.918;4.510;2023-04-30T23:39:47;101121.00;;;12.60
15607;BMP180;7865;50.918;4.510;2023-04-30T23:44:48;101113.00;;;12.50
15607;BMP180;7865;50.918;4.510;2023-04-30T23:49:50;101112.00;;;12.40
15607;BMP180;7865;50.918;4.510;2023-04-30T23:54:51;101111.00;;;12.40
15607;BMP180;7865;50.918;4.510;2023-04-30T23:59:53;101107.00;;;12.30
